createdAt,value
2023-05-16T00:01:43.462Z,99762.94
2023-05-16T00:04:12.058Z,99762.88
2023-05-16T00:06:40.518Z,99762.50
2023-05-16T00:09:08.832Z,99760.25
2023-05-16T00:11:37.052Z,99762.13
2023-05-16T00:14:05.529Z,99752.88
2023-05-16T00:16:33.867Z,99752.94
2023-05-16T00:19:03.304Z,99744.34
2023-05-16T00:21:32.119Z,99741.28
2023-05-16T00:24:00.288Z,99730.84
2023-05-16T00:26:28.591Z,99725.06
2023-05-16T00:28:56.641Z,99720.44
2023-05-16T00:31:25.344Z,99716.97
2023-05-16T00:33:53.409Z,99714.66
2023-05-16T00:36:23.809Z,99710.81
2023-05-16T00:38:52.245Z,99705.41
2023-05-16T00:41:21.309Z,99697.28
2023-05-16T00:43:49.315Z,99691.13
2023-05-16T00:46:17.777Z,99698.09
2023-05-16T00:48:45.802Z,99700.81
2023-05-16T00:51:14.240Z,99696.91
2023-05-16T00:53:42.739Z,99695.78
2023-05-16T00:56:11.344Z,99701.56
2023-05-16T00:58:39.391Z,99696.16
2023-05-16T01:01:08.241Z,99700.44
2023-05-16T01:03:37.725Z,99696.53
2023-05-16T01:06:07.799Z,99691.88
2023-05-16T01:08:35.801Z,99691.50
2023-05-16T01:11:34.878Z,99695.78
2023-05-16T01:14:43.894Z,99688.84
2023-05-16T01:17:12.495Z,99688.44
2023-05-16T01:19:46.498Z,99685.72
2023-05-16T01:22:37.819Z,99684.59
2023-05-16T01:25:33.174Z,99683.00
2023-05-16T01:28:03.145Z,99681.09
2023-05-16T01:30:39.204Z,99684.56
2023-05-16T01:33:08.485Z,99676.06
2023-05-16T01:35:42.875Z,99668.31
2023-05-16T01:38:26.886Z,99670.63
2023-05-16T01:41:16.430Z,99671.41
2023-05-16T01:43:49.944Z,99666.81
2023-05-16T01:46:26.551Z,99662.94
2023-05-16T01:49:07.556Z,99661.75
2023-05-16T01:51:39.651Z,99656.72
2023-05-16T01:54:12.353Z,99647.06
2023-05-16T01:56:44.645Z,99637.44
2023-05-16T01:59:13.493Z,99630.88
2023-05-16T02:01:41.502Z,99639.72
2023-05-16T02:04:10.083Z,99635.84
2023-05-16T02:06:38.056Z,99637.28
2023-05-16T02:09:06.298Z,99641.28
2023-05-16T02:11:34.475Z,99627.75
2023-05-16T02:14:02.747Z,99623.84
2023-05-16T02:16:31.771Z,99620.81
2023-05-16T02:19:00.296Z,99626.53
2023-05-16T02:21:28.403Z,99628.88
2023-05-16T02:23:56.664Z,99625.88
2023-05-16T02:26:24.583Z,99618.50
2023-05-16T02:28:52.972Z,99625.84
2023-05-16T02:31:32.134Z,99622.34
2023-05-16T02:34:01.768Z,99625.03
2023-05-16T02:36:29.906Z,99623.44
2023-05-16T02:38:58.163Z,99625.00
2023-05-16T02:41:26.990Z,99617.28
2023-05-16T02:43:55.556Z,99617.25
2023-05-16T02:46:35.077Z,99609.44
2023-05-16T02:49:05.923Z,99596.41
2023-05-16T02:51:33.836Z,99608.66
2023-05-16T02:54:02.194Z,99600.84
2023-05-16T02:56:30.560Z,99591.09
2023-05-16T02:59:00.569Z,99590.00
2023-05-16T03:01:28.504Z,99584.53
2023-05-16T03:03:57.475Z,99579.25
2023-05-16T03:06:25.595Z,99574.94
2023-05-16T03:08:53.935Z,99581.81
2023-05-16T03:11:23.035Z,99577.47
2023-05-16T03:13:51.613Z,99573.72
2023-05-16T03:16:19.564Z,99568.31
2023-05-16T03:18:48.432Z,99570.72
2023-05-16T03:21:16.568Z,99579.91
2023-05-16T03:23:46.436Z,99577.94
2023-05-16T03:26:14.396Z,99569.16
2023-05-16T03:28:42.849Z,99566.38
2023-05-16T03:31:11.198Z,99562.50
2023-05-16T03:33:39.516Z,99565.56
2023-05-16T03:36:07.681Z,99563.25
2023-05-16T03:38:36.406Z,99561.41
2023-05-16T03:41:04.319Z,99564.47
2023-05-16T03:43:33.223Z,99571.94
2023-05-16T03:46:04.451Z,99565.75
2023-05-16T03:48:32.835Z,99572.31
2023-05-16T03:51:00.726Z,99563.41
2023-05-16T03:53:28.862Z,99565.69
2023-05-16T03:55:56.754Z,99568.03
2023-05-16T03:58:25.053Z,99578.09
2023-05-16T04:00:52.936Z,99563.00
2023-05-16T04:03:21.290Z,99569.19
2023-05-16T04:05:49.319Z,99566.91
2023-05-16T04:08:17.764Z,99570.44
2023-05-16T04:10:45.753Z,99567.41
2023-05-16T04:13:15.394Z,99568.81
2023-05-16T04:15:43.884Z,99570.47
2023-05-16T04:18:13.739Z,99562.34
2023-05-16T04:20:44.835Z,99572.06
2023-05-16T04:23:13.242Z,99573.59
2023-05-16T04:25:41.525Z,99573.16
2023-05-16T04:28:09.924Z,99576.13
2023-05-16T04:30:38.551Z,99573.00
2023-05-16T04:33:07.447Z,99582.41
2023-05-16T04:35:35.548Z,99571.75
2023-05-16T04:38:05.006Z,99564.81
2023-05-16T04:40:33.344Z,99564.38
2023-05-16T04:43:01.718Z,99564.38
2023-05-16T04:45:29.805Z,99565.16
2023-05-16T04:47:58.710Z,99561.75
2023-05-16T04:50:26.808Z,99562.13
2023-05-16T04:52:56.392Z,99567.56
2023-05-16T04:55:25.014Z,99561.81
2023-05-16T04:57:53.414Z,99566.41
2023-05-16T05:00:21.558Z,99573.75
2023-05-16T05:02:49.827Z,99574.53
2023-05-16T05:05:18.037Z,99569.91
2023-05-16T05:07:46.794Z,99579.19
2023-05-16T05:10:14.823Z,99583.81
2023-05-16T05:12:43.095Z,99583.78
2023-05-16T05:15:11.103Z,99583.81
2023-05-16T05:17:39.461Z,99575.28
2023-05-16T05:20:08.820Z,99573.38
2023-05-16T05:22:37.186Z,99576.09
2023-05-16T05:25:06.355Z,99579.59
2023-05-16T05:27:34.699Z,99587.31
2023-05-16T05:30:03.447Z,99581.88
2023-05-16T05:32:32.298Z,99580.72
2023-05-16T05:35:00.325Z,99587.28
2023-05-16T05:37:29.127Z,99569.50
2023-05-16T05:39:57.145Z,99560.25
2023-05-16T05:42:25.673Z,99562.56
2023-05-16T05:44:53.726Z,99569.50
2023-05-16T05:47:22.296Z,99567.84
2023-05-16T05:49:51.405Z,99567.81
2023-05-16T05:52:19.594Z,99558.63
2023-05-16T05:54:48.694Z,99552.72
2023-05-16T05:57:17.060Z,99560.69
2023-05-16T05:59:45.024Z,99561.78
2023-05-16T06:02:14.481Z,99564.22
2023-05-16T06:04:43.016Z,99547.81
2023-05-16T06:07:11.375Z,99549.72
2023-05-16T06:09:39.432Z,99537.44
2023-05-16T06:12:08.024Z,99530.47
2023-05-16T06:14:36.178Z,99535.03
2023-05-16T06:17:04.670Z,99542.47
2023-05-16T06:19:32.658Z,99559.44
2023-05-16T06:22:01.049Z,99554.03
2023-05-16T06:24:30.173Z,99548.66
2023-05-16T06:26:58.418Z,99543.25
2023-05-16T06:29:26.356Z,99556.75
2023-05-16T06:31:54.738Z,99560.97
2023-05-16T06:34:28.611Z,99559.06
2023-05-16T06:36:57.090Z,99553.28
2023-05-16T06:39:25.142Z,99551.75
2023-05-16T06:41:56.184Z,99549.81
2023-05-16T06:44:24.788Z,99544.06
2023-05-16T06:46:53.310Z,99540.19
2023-05-16T06:49:21.517Z,99543.28
2023-05-16T06:51:50.090Z,99546.72
2023-05-16T06:54:18.023Z,99555.16
2023-05-16T06:56:46.384Z,99556.78
2023-05-16T06:59:14.389Z,99553.25
2023-05-16T07:01:43.066Z,99547.88
2023-05-16T07:04:11.217Z,99551.00
2023-05-16T07:06:39.629Z,99544.81
2023-05-16T07:09:07.634Z,99553.69
2023-05-16T07:11:36.179Z,99560.66
2023-05-16T07:14:04.472Z,99559.09
2023-05-16T07:16:33.282Z,99560.66
2023-05-16T07:19:01.635Z,99559.09
2023-05-16T07:21:30.541Z,99559.03
2023-05-16T07:23:58.595Z,99561.38
2023-05-16T07:26:27.002Z,99556.69
2023-05-16T07:28:55.549Z,99564.44
2023-05-16T07:31:24.529Z,99565.59
2023-05-16T07:33:54.088Z,99578.72
2023-05-16T07:36:22.556Z,99583.75
2023-05-16T07:38:50.755Z,99584.13
2023-05-16T07:41:19.065Z,99595.34
2023-05-16T07:43:47.039Z,99598.41
2023-05-16T07:46:15.415Z,99605.75
2023-05-16T07:48:43.985Z,99608.50
2023-05-16T07:51:12.431Z,99617.38
2023-05-16T07:53:40.553Z,99621.63
2023-05-16T07:56:09.590Z,99618.53
2023-05-16T07:58:37.642Z,99628.97
2023-05-16T08:01:06.222Z,99628.97
2023-05-16T08:03:35.950Z,99631.69
2023-05-16T08:06:04.908Z,99628.59
2023-05-16T08:08:35.092Z,99622.81
2023-05-16T08:11:03.664Z,99601.19
2023-05-16T08:13:32.082Z,99604.28
2023-05-16T08:16:00.486Z,99606.97
2023-05-16T08:18:28.503Z,99617.41
2023-05-16T08:20:56.804Z,99627.06
2023-05-16T08:23:24.804Z,99609.28
2023-05-16T08:25:54.988Z,99618.94
2023-05-16T08:28:23.127Z,99616.63
2023-05-16T08:30:51.718Z,99618.56
2023-05-16T08:33:19.802Z,99604.28
2023-05-16T08:35:49.694Z,99601.59
2023-05-16T08:38:17.776Z,99613.56
2023-05-16T08:40:46.252Z,99614.31
2023-05-16T08:43:14.684Z,99623.16
2023-05-16T08:45:43.178Z,99616.53
2023-05-16T08:48:12.272Z,99620.41
2023-05-16T08:50:43.070Z,99619.63
2023-05-16T08:53:12.681Z,99621.13
2023-05-16T08:55:43.055Z,99622.69
2023-05-16T08:58:11.339Z,99622.69
2023-05-16T09:00:41.510Z,99649.25
2023-05-16T09:03:09.973Z,99651.19
2023-05-16T09:05:38.802Z,99643.50
2023-05-16T09:08:06.859Z,99631.09
2023-05-16T09:10:35.161Z,99627.50
2023-05-16T09:13:03.135Z,99612.56
2023-05-16T09:15:33.829Z,99601.00
2023-05-16T09:18:03.494Z,99599.75
2023-05-16T09:20:31.972Z,99589.38
2023-05-16T09:23:00.866Z,99587.22
2023-05-16T09:25:32.414Z,99598.06
2023-05-16T09:28:02.725Z,99585.69
2023-05-16T09:30:37.628Z,99608.47
2023-05-16T09:33:08.040Z,99591.50
2023-05-16T09:35:44.973Z,99580.72
2023-05-16T09:38:16.975Z,99591.50
2023-05-16T09:40:46.751Z,99582.66
2023-05-16T09:43:17.829Z,99570.69
2023-05-16T09:45:48.524Z,99568.38
2023-05-16T09:48:18.590Z,99554.09
2023-05-16T09:50:51.694Z,99544.06
2023-05-16T09:53:32.639Z,99557.16
2023-05-16T09:56:07.200Z,99562.44
2023-05-16T09:58:37.494Z,99562.19
2023-05-16T10:01:07.475Z,99556.78
2023-05-16T10:03:37.802Z,99551.75
2023-05-16T10:06:07.439Z,99559.00
2023-05-16T10:08:37.126Z,99561.31
2023-05-16T10:11:06.974Z,99558.00
2023-05-16T10:13:36.988Z,99572.56
2023-05-16T10:16:12.129Z,99576.47
2023-05-16T10:18:42.498Z,99573.13
2023-05-16T10:21:16.821Z,99574.78
2023-05-16T10:23:49.197Z,99574.56
2023-05-16T10:26:18.106Z,99569.41
2023-05-16T10:28:46.640Z,99573.69
2023-05-16T10:31:16.513Z,99575.78
2023-05-16T10:33:46.324Z,99580.59
2023-05-16T10:36:16.968Z,99588.03
2023-05-16T10:38:46.798Z,99582.41
2023-05-16T10:41:15.923Z,99586.81
2023-05-16T10:43:53.298Z,99586.22
2023-05-16T10:46:24.391Z,99588.16
2023-05-16T10:48:54.692Z,99595.03
2023-05-16T10:51:24.405Z,99610.13
2023-05-16T10:53:53.807Z,99613.75
2023-05-16T10:56:27.611Z,99604.53
2023-05-16T10:58:57.096Z,99600.34
2023-05-16T11:01:36.125Z,99616.22
2023-05-16T11:04:08.531Z,99605.31
2023-05-16T11:06:43.396Z,99592.06
2023-05-16T11:09:14.353Z,99586.13
2023-05-16T11:11:50.258Z,99584.53
2023-05-16T11:14:33.683Z,99574.56
2023-05-16T11:17:13.633Z,99569.91
2023-05-16T11:22:12.412Z,99570.38
2023-05-16T11:25:03.212Z,99570.38
2023-05-16T11:27:33.776Z,99571.78
2023-05-16T11:30:13.169Z,99575.78
2023-05-16T11:32:46.824Z,99576.38
2023-05-16T11:35:17.306Z,99587.50
2023-05-16T11:37:47.429Z,99586.50
2023-05-16T11:40:17.563Z,99582.47
2023-05-16T11:42:51.678Z,99590.00
2023-05-16T11:45:24.607Z,99585.66
2023-05-16T11:47:53.215Z,99589.44
2023-05-16T11:50:24.068Z,99585.28
2023-05-16T11:52:57.794Z,99576.34
2023-05-16T11:55:41.063Z,99586.09
2023-05-16T11:58:12.653Z,99577.88
2023-05-16T12:00:49.030Z,99573.50
2023-05-16T12:03:19.594Z,99575.41
2023-05-16T12:05:53.450Z,99573.53
2023-05-16T12:08:22.877Z,99561.44
2023-05-16T12:10:52.650Z,99561.00
2023-05-16T12:13:24.367Z,99562.81
2023-05-16T12:15:53.144Z,99560.69
2023-05-16T12:18:22.337Z,99553.38
2023-05-16T12:20:51.343Z,99552.44
2023-05-16T12:23:19.811Z,99554.53
2023-05-16T12:25:49.571Z,99558.88
2023-05-16T12:28:18.085Z,99563.09
2023-05-16T12:30:48.259Z,99554.63
2023-05-16T12:33:17.641Z,99553.31
2023-05-16T12:35:47.821Z,99558.09
2023-05-16T12:38:20.613Z,99553.50
2023-05-16T12:40:48.847Z,99553.31
2023-05-16T12:43:20.957Z,99542.25
2023-05-16T12:45:55.748Z,99529.09
2023-05-16T12:48:30.821Z,99536.84
2023-05-16T12:51:11.912Z,99534.13
2023-05-16T12:54:05.819Z,99534.84
2023-05-16T12:56:42.456Z,99533.09
2023-05-16T12:59:12.576Z,99535.75
2023-05-16T13:01:42.486Z,99524.84
2023-05-16T13:04:15.790Z,99535.69
2023-05-16T13:06:56.655Z,99533.19
2023-05-16T13:09:31.152Z,99538.75
2023-05-16T13:12:00.875Z,99540.34
2023-05-16T13:14:31.354Z,99539.84
2023-05-16T13:16:59.380Z,99541.34
2023-05-16T13:19:27.813Z,99533.41
2023-05-16T13:21:56.398Z,99538.16
2023-05-16T13:24:24.763Z,99525.81
2023-05-16T13:26:52.911Z,99541.81
2023-05-16T13:29:21.265Z,99533.59
2023-05-16T13:31:49.411Z,99530.88
2023-05-16T13:34:17.717Z,99541.59
2023-05-16T13:36:53.736Z,99536.16
2023-05-16T13:39:23.279Z,99543.09
2023-05-16T13:41:51.885Z,99541.44
2023-05-16T13:44:20.399Z,99533.38
2023-05-16T13:46:48.925Z,99535.00
2023-05-16T13:49:17.320Z,99528.19
2023-05-16T13:51:45.366Z,99531.13
2023-05-16T13:54:13.850Z,99533.56
2023-05-16T13:56:42.323Z,99531.03
2023-05-16T13:59:15.069Z,99536.13
2023-05-16T14:01:46.543Z,99530.59
2023-05-16T14:04:15.232Z,99535.16
2023-05-16T14:06:43.654Z,99525.88
2023-05-16T14:09:13.475Z,99525.09
2023-05-16T14:11:41.480Z,99528.00
2023-05-16T14:14:09.771Z,99533.63
2023-05-16T14:16:37.778Z,99533.97
2023-05-16T14:19:06.804Z,99530.81
2023-05-16T14:21:34.802Z,99534.56
2023-05-16T14:24:03.088Z,99539.19
2023-05-16T14:26:32.588Z,99538.06
2023-05-16T14:29:03.689Z,99536.19
2023-05-16T14:31:32.020Z,99540.03
2023-05-16T14:34:00.488Z,99542.25
2023-05-16T14:36:28.428Z,99544.34
2023-05-16T14:38:56.764Z,99542.06
2023-05-16T14:41:24.736Z,99544.91
2023-05-16T14:43:53.044Z,99537.81
2023-05-16T14:46:21.114Z,99529.81
2023-05-16T14:48:49.881Z,99533.34
2023-05-16T14:51:18.122Z,99537.22
2023-05-16T14:53:47.546Z,99531.75
2023-05-16T14:56:16.215Z,99536.22
2023-05-16T14:58:45.020Z,99534.47
2023-05-16T15:01:13.123Z,99536.22
2023-05-16T15:06:12.824Z,99532.13
2023-05-16T15:08:41.941Z,99541.53
2023-05-16T15:11:09.948Z,99545.94
2023-05-16T15:13:39.311Z,99536.28
2023-05-16T15:16:07.999Z,99537.91
2023-05-16T15:18:36.765Z,99536.19
2023-05-16T15:21:04.804Z,99539.94
2023-05-16T15:23:33.424Z,99540.91
2023-05-16T15:26:01.531Z,99542.84
2023-05-16T15:28:30.221Z,99534.09
2023-05-16T15:30:58.261Z,99545.28
2023-05-16T15:33:26.526Z,99541.06
2023-05-16T15:35:54.598Z,99537.81
2023-05-16T15:38:22.960Z,99545.28
2023-05-16T15:40:58.071Z,99538.19
2023-05-16T15:43:34.411Z,99545.50
2023-05-16T15:46:02.457Z,99539.53
2023-05-16T15:48:30.897Z,99535.69
2023-05-16T15:50:58.922Z,99536.72
2023-05-16T15:53:29.616Z,99541.47
2023-05-16T15:55:57.914Z,99544.06
2023-05-16T15:58:26.423Z,99541.41
2023-05-16T16:00:55.506Z,99545.59
2023-05-16T16:03:24.044Z,99546.59
2023-05-16T16:05:52.600Z,99550.84
2023-05-16T16:08:21.458Z,99548.00
2023-05-16T16:10:49.729Z,99551.91
2023-05-16T16:13:18.004Z,99556.03
2023-05-16T16:15:46.115Z,99556.22
2023-05-16T16:18:15.265Z,99551.97
2023-05-16T16:20:43.513Z,99555.22
2023-05-16T16:23:11.966Z,99555.66
2023-05-16T16:25:40.083Z,99554.41
2023-05-16T16:28:08.777Z,99551.97
2023-05-16T16:30:36.767Z,99561.78
2023-05-16T16:33:05.173Z,99560.19
2023-05-16T16:35:34.040Z,99573.66
2023-05-16T16:38:07.071Z,99563.47
2023-05-16T16:40:36.059Z,99564.22
2023-05-16T16:43:06.588Z,99564.03
2023-05-16T16:45:34.942Z,99571.25
2023-05-16T16:48:03.561Z,99569.72
2023-05-16T16:50:32.746Z,99567.97
2023-05-16T16:53:04.659Z,99566.22
2023-05-16T16:55:32.797Z,99575.69
2023-05-16T16:58:02.148Z,99578.34
2023-05-16T17:00:30.278Z,99579.63
2023-05-16T17:02:58.985Z,99592.44
2023-05-16T17:05:27.468Z,99591.09
2023-05-16T17:07:55.970Z,99597.53
2023-05-16T17:10:24.056Z,99595.63
2023-05-16T17:12:52.430Z,99606.19
2023-05-16T17:15:21.158Z,99595.75
2023-05-16T17:17:49.683Z,99602.41
2023-05-16T17:20:17.800Z,99603.56
2023-05-16T17:22:48.958Z,99598.88
2023-05-16T17:25:17.053Z,99604.28
2023-05-16T17:27:45.568Z,99607.00
2023-05-16T17:30:13.803Z,99610.28
2023-05-16T17:32:42.378Z,99608.41
2023-05-16T17:35:10.816Z,99604.88
2023-05-16T17:37:39.546Z,99607.16
2023-05-16T17:40:10.525Z,99606.03
2023-05-16T17:42:39.212Z,99609.13
2023-05-16T17:45:08.285Z,99611.38
2023-05-16T17:47:36.801Z,99615.00
2023-05-16T17:50:06.595Z,99619.19
2023-05-16T17:52:38.120Z,99622.16
2023-05-16T17:55:07.576Z,99619.50
2023-05-16T17:57:36.594Z,99621.09
2023-05-16T18:00:06.086Z,99623.06
2023-05-16T18:02:36.700Z,99633.47
2023-05-16T18:05:07.058Z,99631.22
2023-05-16T18:07:35.606Z,99635.44
2023-05-16T18:10:04.450Z,99641.31
2023-05-16T18:12:33.193Z,99644.66
2023-05-16T18:15:01.296Z,99641.84
2023-05-16T18:17:30.099Z,99650.41
2023-05-16T18:19:58.881Z,99658.28
2023-05-16T18:22:28.490Z,99662.94
2023-05-16T18:24:56.731Z,99658.34
2023-05-16T18:27:25.111Z,99677.22
2023-05-16T18:29:53.242Z,99683.00
2023-05-16T18:32:21.762Z,99674.16
2023-05-16T18:34:50.537Z,99693.06
2023-05-16T18:37:18.980Z,99690.00
2023-05-16T18:39:49.148Z,99691.13
2023-05-16T18:42:17.986Z,99690.00
2023-05-16T18:44:46.325Z,99706.94
2023-05-16T18:47:16.627Z,99706.19
2023-05-16T18:49:44.878Z,99706.16
2023-05-16T18:52:13.343Z,99713.50
2023-05-16T18:54:41.234Z,99720.78
2023-05-16T18:57:09.669Z,99716.84
2023-05-16T18:59:37.788Z,99717.59
2023-05-16T19:02:06.361Z,99723.44
2023-05-16T19:04:34.708Z,99721.47
2023-05-16T19:07:04.803Z,99730.06
2023-05-16T19:09:33.888Z,99725.88
2023-05-16T19:12:02.273Z,99729.81
2023-05-16T19:14:30.349Z,99728.53
2023-05-16T19:16:58.761Z,99732.41
2023-05-16T19:19:26.926Z,99725.94
2023-05-16T19:21:56.033Z,99733.63
2023-05-16T19:24:24.199Z,99737.22
2023-05-16T19:26:52.529Z,99743.81
2023-05-16T19:29:22.649Z,99742.25
2023-05-16T19:31:51.094Z,99755.22
2023-05-16T19:34:21.417Z,99755.16
2023-05-16T19:36:50.827Z,99757.81
2023-05-16T19:39:18.879Z,99760.69
2023-05-16T19:41:51.640Z,99762.56
2023-05-16T19:44:20.423Z,99768.34
2023-05-16T19:46:48.784Z,99774.00
2023-05-16T19:49:18.910Z,99779.41
2023-05-16T19:51:48.712Z,99779.16
2023-05-16T19:54:16.839Z,99790.63
2023-05-16T19:56:45.221Z,99787.66
2023-05-16T19:59:13.293Z,99797.50
2023-05-16T20:04:14.794Z,99806.75
2023-05-16T20:06:43.243Z,99811.34
2023-05-16T20:09:11.555Z,99814.69
2023-05-16T20:11:40.273Z,99810.03
2023-05-16T20:14:08.200Z,99804.59
2023-05-16T20:16:36.692Z,99808.41
2023-05-16T20:19:04.732Z,99800.31
2023-05-16T20:21:33.062Z,99798.44
2023-05-16T20:24:01.341Z,99796.41
2023-05-16T20:26:29.640Z,99806.47
2023-05-16T20:28:57.737Z,99802.94
2023-05-16T20:31:26.427Z,99800.22
2023-05-16T20:33:54.610Z,99792.81
2023-05-16T20:36:23.450Z,99802.03
2023-05-16T20:38:51.582Z,99802.84
2023-05-16T20:41:19.848Z,99800.00
2023-05-16T20:43:47.853Z,99800.50
2023-05-16T20:46:16.280Z,99788.97
2023-05-16T20:48:44.390Z,99781.84
2023-05-16T20:51:12.828Z,99785.25
2023-05-16T20:53:40.805Z,99778.53
2023-05-16T20:56:09.122Z,99786.63
2023-05-16T20:58:41.320Z,99782.50
2023-05-16T21:01:09.716Z,99784.59
2023-05-16T21:03:37.699Z,99782.00
2023-05-16T21:06:07.106Z,99782.78
2023-05-16T21:08:35.072Z,99784.59
2023-05-16T21:11:03.666Z,99781.06
2023-05-16T21:13:31.703Z,99778.19
2023-05-16T21:16:00.362Z,99772.94
2023-05-16T21:18:28.398Z,99781.31
2023-05-16T21:20:56.994Z,99781.88
2023-05-16T21:23:24.986Z,99779.72
2023-05-16T21:25:53.325Z,99784.38
2023-05-16T21:28:21.296Z,99782.47
2023-05-16T21:30:49.349Z,99791.28
2023-05-16T21:33:17.713Z,99796.41
2023-05-16T21:35:45.818Z,99800.53
2023-05-16T21:38:14.212Z,99802.03
2023-05-16T21:40:42.225Z,99807.47
2023-05-16T21:43:10.656Z,99806.69
2023-05-16T21:45:40.557Z,99804.31
2023-05-16T21:48:09.303Z,99804.22
2023-05-16T21:50:37.411Z,99804.31
2023-05-16T21:53:05.850Z,99809.59
2023-05-16T21:55:33.727Z,99816.53
2023-05-16T21:58:02.321Z,99808.59
2023-05-16T22:00:30.271Z,99819.78
2023-05-16T22:02:58.671Z,99828.31
2023-05-16T22:05:26.875Z,99823.63
2023-05-16T22:07:55.358Z,99828.31
2023-05-16T22:10:23.437Z,99828.25
2023-05-16T22:12:51.688Z,99832.34
2023-05-16T22:15:19.591Z,99832.88
2023-05-16T22:17:48.480Z,99827.75
2023-05-16T22:20:16.578Z,99826.25
2023-05-16T22:22:45.113Z,99836.25
2023-05-16T22:25:13.128Z,99836.75
2023-05-16T22:27:41.678Z,99840.31
2023-05-16T22:30:09.970Z,99843.69
2023-05-16T22:32:38.339Z,99852.34
2023-05-16T22:35:06.749Z,99859.50
2023-05-16T22:37:35.002Z,99854.88
2023-05-16T22:40:02.998Z,99859.88
2023-05-16T22:42:31.738Z,99857.34
2023-05-16T22:44:59.841Z,99851.34
2023-05-16T22:47:29.047Z,99857.41
2023-05-16T22:49:57.268Z,99862.81
2023-05-16T22:52:25.682Z,99860.69
2023-05-16T22:54:53.576Z,99858.19
2023-05-16T22:57:21.957Z,99850.84
2023-05-16T22:59:50.126Z,99850.03
2023-05-16T23:02:18.529Z,99840.09
2023-05-16T23:04:46.512Z,99838.38
2023-05-16T23:07:14.876Z,99841.63
2023-05-16T23:09:42.878Z,99836.59
2023-05-16T23:12:11.324Z,99832.91
2023-05-16T23:14:39.338Z,99838.00
2023-05-16T23:17:07.615Z,99839.28
2023-05-16T23:19:35.719Z,99844.47
2023-05-16T23:22:06.265Z,99845.19
2023-05-16T23:24:34.275Z,99853.03
2023-05-16T23:27:02.817Z,99843.47
2023-05-16T23:29:30.764Z,99842.22
2023-05-16T23:31:59.088Z,99842.28
2023-05-16T23:34:27.117Z,99844.94
2023-05-16T23:36:55.398Z,99844.19
2023-05-16T23:39:23.437Z,99847.31
2023-05-16T23:41:51.676Z,99850.75
2023-05-16T23:44:19.619Z,99846.88
2023-05-16T23:46:48.014Z,99842.94
2023-05-16T23:49:16.030Z,99839.88
2023-05-16T23:51:56.738Z,99844.03
2023-05-16T23:54:26.732Z,99844.81
2023-05-16T23:56:55.454Z,99852.91
2023-05-16T23:59:23.497Z,99845.03
